createdAt,value
2022-09-02T00:01:24.072Z,20.79
2022-09-02T00:03:51.901Z,20.51
2022-09-02T00:06:19.586Z,20.60
2022-09-02T00:08:47.063Z,20.70
2022-09-02T00:11:18.376Z,20.86
2022-09-02T00:13:47.775Z,20.76
2022-09-02T00:16:14.743Z,20.71
2022-09-02T00:18:45.737Z,20.92
2022-09-02T00:21:14.473Z,20.81
2022-09-02T00:23:43.147Z,20.05
2022-09-02T00:26:10.867Z,20.33
2022-09-02T00:28:38.525Z,19.95
2022-09-02T00:31:07.339Z,19.35
2022-09-02T00:33:34.503Z,19.50
2022-09-02T00:36:03.414Z,19.03
2022-09-02T00:38:33.921Z,18.50
2022-09-02T00:41:03.668Z,19.01
2022-09-02T00:44:00.625Z,19.69
2022-09-02T00:46:30.468Z,19.51
2022-09-02T00:49:03.890Z,19.67
2022-09-02T00:51:37.565Z,19.43
2022-09-02T00:54:06.422Z,19.61
2022-09-02T00:56:34.031Z,19.74
2022-09-02T00:59:01.401Z,19.64
2022-09-02T01:01:28.372Z,19.68
2022-09-02T01:03:55.460Z,19.77
2022-09-02T01:06:25.277Z,19.79
2022-09-02T01:08:58.173Z,20.29
2022-09-02T01:11:32.538Z,19.94
2022-09-02T01:13:59.797Z,19.42
2022-09-02T01:16:31.853Z,19.82
2022-09-02T01:19:02.089Z,19.81
2022-09-02T01:21:28.997Z,19.57
2022-09-02T01:23:56.106Z,19.23
2022-09-02T01:26:23.013Z,19.36
2022-09-02T01:28:49.806Z,19.42
2022-09-02T01:31:16.693Z,19.50
2022-09-02T01:33:43.585Z,19.68
2022-09-02T01:36:12.367Z,19.69
2022-09-02T01:38:39.267Z,19.79
2022-09-02T01:41:06.143Z,19.81
2022-09-02T01:43:33.020Z,19.85
2022-09-02T01:46:00.389Z,19.82
2022-09-02T01:48:27.337Z,19.56
2022-09-02T01:51:03.779Z,19.46
2022-09-02T01:53:31.964Z,19.51
2022-09-02T01:55:58.879Z,19.36
2022-09-02T01:58:25.767Z,19.36
2022-09-02T02:00:52.832Z,19.03
2022-09-02T02:03:20.795Z,19.11
2022-09-02T02:05:47.696Z,19.08
2022-09-02T02:08:14.524Z,18.88
2022-09-02T02:10:43.175Z,18.68
2022-09-02T02:13:11.006Z,18.96
2022-09-02T02:15:43.275Z,19.09
2022-09-02T02:18:11.489Z,19.11
2022-09-02T02:20:39.145Z,19.18
2022-09-02T02:23:07.085Z,19.33
2022-09-02T02:25:34.076Z,19.33
2022-09-02T02:28:01.005Z,19.47
2022-09-02T02:30:29.552Z,19.40
2022-09-02T02:32:56.493Z,19.37
2022-09-02T02:35:23.496Z,19.42
2022-09-02T02:37:50.958Z,19.73
2022-09-02T02:40:20.534Z,19.62
2022-09-02T02:42:48.296Z,19.67
2022-09-02T02:45:15.669Z,19.72
2022-09-02T02:47:46.314Z,19.70
2022-09-02T02:50:15.894Z,19.53
2022-09-02T02:52:43.034Z,19.57
2022-09-02T02:55:12.082Z,19.48
2022-09-02T02:57:40.223Z,19.40
2022-09-02T03:00:20.026Z,19.37
2022-09-02T03:02:47.213Z,19.52
2022-09-02T03:05:14.862Z,19.16
2022-09-02T03:07:42.665Z,18.90
2022-09-02T03:10:12.338Z,18.87
2022-09-02T03:12:39.855Z,19.03
2022-09-02T03:15:08.905Z,19.08
2022-09-02T03:17:35.833Z,19.24
2022-09-02T03:20:03.050Z,19.12
2022-09-02T03:22:29.839Z,19.06
2022-09-02T03:24:56.737Z,18.68
2022-09-02T03:27:23.856Z,18.69
2022-09-02T03:29:50.650Z,18.83
2022-09-02T03:32:17.532Z,18.74
2022-09-02T03:34:44.439Z,18.53
2022-09-02T03:37:11.288Z,18.53
2022-09-02T03:39:39.293Z,18.62
2022-09-02T03:42:06.527Z,18.79
2022-09-02T03:44:34.506Z,18.65
2022-09-02T03:47:01.726Z,18.87
2022-09-02T03:49:29.051Z,18.90
2022-09-02T03:51:55.935Z,18.86
2022-09-02T03:54:22.840Z,18.55
2022-09-02T03:56:49.986Z,18.61
2022-09-02T03:59:17.234Z,18.67
2022-09-02T04:01:45.012Z,18.60
2022-09-02T04:04:12.423Z,18.79
2022-09-02T04:06:39.327Z,18.88
2022-09-02T04:09:06.483Z,18.71
2022-09-02T04:11:33.346Z,18.86
2022-09-02T04:14:00.211Z,18.53
2022-09-02T04:16:29.918Z,18.44
2022-09-02T04:18:57.469Z,18.55
2022-09-02T04:21:25.920Z,18.62
2022-09-02T04:23:52.828Z,18.71
2022-09-02T04:26:20.541Z,18.72
2022-09-02T04:28:48.987Z,18.81
2022-09-02T04:31:18.710Z,18.82
2022-09-02T04:33:45.793Z,18.53
2022-09-02T04:36:16.656Z,18.86
2022-09-02T04:38:43.728Z,18.78
2022-09-02T04:41:19.476Z,18.69
2022-09-02T04:43:46.813Z,18.89
2022-09-02T04:46:15.732Z,18.81
2022-09-02T04:48:43.543Z,18.92
2022-09-02T04:51:13.461Z,18.86
2022-09-02T04:53:41.061Z,19.03
2022-09-02T04:56:11.536Z,18.96
2022-09-02T04:58:39.091Z,18.97
2022-09-02T05:01:08.115Z,18.78
2022-09-02T05:03:34.987Z,18.78
2022-09-02T05:06:04.745Z,18.75
2022-09-02T05:08:31.973Z,18.71
2022-09-02T05:10:59.413Z,18.76
2022-09-02T05:13:26.311Z,18.61
2022-09-02T05:15:53.251Z,18.54
2022-09-02T05:18:20.111Z,18.96
2022-09-02T05:20:46.923Z,18.69
2022-09-02T05:23:14.634Z,18.87
2022-09-02T05:25:41.958Z,19.02
2022-09-02T05:28:09.448Z,19.21
2022-09-02T05:30:37.849Z,19.25
2022-09-02T05:33:05.097Z,19.22
2022-09-02T05:35:33.277Z,19.23
2022-09-02T05:38:01.392Z,19.54
2022-09-02T05:40:28.880Z,19.84
2022-09-02T05:42:55.968Z,19.88
2022-09-02T05:45:24.201Z,19.79
2022-09-02T05:47:51.559Z,20.03
2022-09-02T05:50:18.548Z,20.24
2022-09-02T05:52:51.670Z,20.01
2022-09-02T05:55:18.787Z,20.11
2022-09-02T05:57:46.469Z,19.55
2022-09-02T06:00:18.145Z,19.74
2022-09-02T06:02:46.103Z,19.91
2022-09-02T06:05:13.401Z,20.31
2022-09-02T06:07:40.220Z,20.24
2022-09-02T06:10:08.841Z,20.08
2022-09-02T06:12:39.346Z,20.39
2022-09-02T06:15:10.568Z,20.09
2022-09-02T06:17:37.339Z,20.20
2022-09-02T06:20:04.770Z,20.55
2022-09-02T06:22:31.530Z,20.43
2022-09-02T06:24:58.376Z,19.74
2022-09-02T06:27:25.159Z,19.97
2022-09-02T06:29:52.145Z,20.16
2022-09-02T06:32:19.088Z,20.01
2022-09-02T06:34:45.990Z,19.67
2022-09-02T06:37:15.631Z,20.24
2022-09-02T06:39:45.654Z,19.28
2022-09-02T06:42:12.591Z,20.41
2022-09-02T06:44:39.478Z,20.45
2022-09-02T06:47:06.499Z,20.48
2022-09-02T06:49:34.049Z,20.69
2022-09-02T06:52:01.104Z,20.72
2022-09-02T06:54:28.115Z,20.53
2022-09-02T06:56:55.339Z,20.39
2022-09-02T06:59:22.936Z,20.62
2022-09-02T07:01:50.621Z,20.86
2022-09-02T07:04:36.982Z,21.14
2022-09-02T07:07:06.990Z,21.04
2022-09-02T07:09:34.648Z,21.51
2022-09-02T07:12:05.089Z,21.61
2022-09-02T07:14:37.109Z,21.08
2022-09-02T07:17:04.168Z,21.72
2022-09-02T07:19:31.618Z,21.95
2022-09-02T07:21:58.658Z,22.25
2022-09-02T07:24:25.573Z,22.15
2022-09-02T07:26:55.331Z,21.95
2022-09-02T07:29:23.388Z,22.35
2022-09-02T07:31:50.536Z,22.39
2022-09-02T07:34:19.813Z,22.67
2022-09-02T07:36:49.130Z,22.62
2022-09-02T07:39:18.530Z,22.79
2022-09-02T07:41:49.260Z,23.14
2022-09-02T07:44:18.898Z,23.10
2022-09-02T07:46:46.498Z,23.02
2022-09-02T07:49:15.777Z,23.00
2022-09-02T07:51:49.399Z,23.29
2022-09-02T07:54:19.569Z,23.52
2022-09-02T07:56:46.579Z,23.87
2022-09-02T07:59:13.761Z,23.88
2022-09-02T08:04:16.544Z,23.57
2022-09-02T08:06:43.528Z,23.82
2022-09-02T08:09:24.318Z,23.94
2022-09-02T08:11:56.008Z,23.91
2022-09-02T08:14:26.438Z,24.55
2022-09-02T08:16:54.831Z,24.64
2022-09-02T08:19:22.627Z,24.70
2022-09-02T08:21:49.608Z,25.02
2022-09-02T08:24:16.598Z,24.90
2022-09-02T08:26:43.549Z,25.08
2022-09-02T08:29:10.478Z,25.38
2022-09-02T08:31:38.360Z,24.55
2022-09-02T08:34:05.821Z,24.48
2022-09-02T08:36:32.798Z,25.34
2022-09-02T08:39:03.437Z,25.47
2022-09-02T08:41:44.136Z,26.02
2022-09-02T08:44:15.665Z,25.90
2022-09-02T08:46:43.058Z,24.85
2022-09-02T08:49:26.238Z,25.31
2022-09-02T08:52:00.995Z,25.80
2022-09-02T08:54:42.656Z,25.98
2022-09-02T08:57:10.742Z,26.00
2022-09-02T09:02:18.366Z,26.25
2022-09-02T09:05:23.359Z,26.04
2022-09-02T09:08:21.897Z,25.62
2022-09-02T09:10:57.196Z,25.90
2022-09-02T09:13:52.994Z,26.26
2022-09-02T09:16:35.464Z,26.44
2022-09-02T09:19:15.717Z,26.35
2022-09-02T09:21:44.128Z,25.60
2022-09-02T09:24:37.078Z,26.06
2022-09-02T09:27:13.507Z,26.24
2022-09-02T09:29:40.438Z,26.36
2022-09-02T09:32:23.126Z,26.31
2022-09-02T09:35:17.268Z,26.54
2022-09-02T09:37:52.478Z,26.99
2022-09-02T09:40:20.631Z,26.84
2022-09-02T09:42:55.550Z,27.03
2022-09-02T09:45:33.491Z,27.06
2022-09-02T09:48:30.029Z,26.88
2022-09-02T09:50:56.838Z,27.05
2022-09-02T09:53:28.074Z,27.31
2022-09-02T09:56:06.801Z,27.06
2022-09-02T09:58:40.123Z,26.98
2022-09-02T10:01:31.203Z,26.97
2022-09-02T10:04:43.987Z,26.85
2022-09-02T10:07:13.722Z,26.90
2022-09-02T10:09:41.357Z,26.51
2022-09-02T10:12:11.357Z,26.66
2022-09-02T10:14:48.655Z,27.10
2022-09-02T10:17:33.601Z,27.28
2022-09-02T10:20:09.447Z,26.49
2022-09-02T10:23:00.076Z,26.69
2022-09-02T10:25:39.438Z,27.07
2022-09-02T10:28:34.168Z,27.25
2022-09-02T10:31:18.166Z,27.33
2022-09-02T10:33:45.848Z,27.79
2022-09-02T10:36:29.528Z,27.97
2022-09-02T10:39:06.947Z,27.79
2022-09-02T10:44:36.909Z,27.32
2022-09-02T10:47:19.348Z,27.81
2022-09-02T10:49:56.545Z,27.99
2022-09-02T10:52:47.675Z,27.79
2022-09-02T10:55:42.761Z,28.08
2022-09-02T10:58:41.161Z,28.35
2022-09-02T11:01:12.539Z,28.63
2022-09-02T11:03:57.608Z,28.82
2022-09-02T11:06:40.351Z,28.92
2022-09-02T11:09:16.291Z,29.35
2022-09-02T11:12:00.077Z,29.22
2022-09-02T11:14:45.320Z,28.58
2022-09-02T11:17:28.879Z,28.97
2022-09-02T11:20:04.156Z,29.68
2022-09-02T11:22:58.001Z,29.35
2022-09-02T11:25:30.438Z,29.61
2022-09-02T11:28:23.736Z,29.62
2022-09-02T11:31:15.939Z,30.01
2022-09-02T11:33:48.790Z,30.05
2022-09-02T11:36:17.238Z,28.69
2022-09-02T11:39:00.949Z,28.91
2022-09-02T11:41:33.983Z,29.35
2022-09-02T11:44:34.074Z,28.41
2022-09-02T11:47:30.658Z,28.45
2022-09-02T11:50:18.155Z,28.88
2022-09-02T11:53:12.689Z,28.76
2022-09-02T11:55:49.551Z,28.71
2022-09-02T11:58:36.868Z,28.96
2022-09-02T12:01:25.809Z,29.08
2022-09-02T12:07:10.235Z,28.97
2022-09-02T12:09:49.668Z,29.59
2022-09-02T12:12:39.841Z,29.74
2022-09-02T12:15:07.334Z,29.16
2022-09-02T12:17:50.007Z,29.51
2022-09-02T12:20:39.143Z,30.05
2022-09-02T12:23:09.309Z,30.39
2022-09-02T12:25:42.511Z,30.20
2022-09-02T12:28:27.588Z,30.49
2022-09-02T12:30:57.701Z,30.22
2022-09-02T12:33:32.739Z,30.58
2022-09-02T12:36:00.122Z,31.03
2022-09-02T12:38:31.379Z,29.77
2022-09-02T12:41:12.360Z,30.77
2022-09-02T12:43:44.735Z,29.48
2022-09-02T12:46:31.009Z,29.25
2022-09-02T12:49:12.099Z,28.92
2022-09-02T12:51:59.944Z,29.22
2022-09-02T12:54:39.988Z,28.75
2022-09-02T12:57:09.033Z,27.93
2022-09-02T12:59:41.728Z,29.14
2022-09-02T13:02:17.292Z,29.36
2022-09-02T13:05:02.148Z,29.59
2022-09-02T13:08:06.609Z,29.80
2022-09-02T13:11:20.880Z,27.90
2022-09-02T13:13:56.824Z,26.86
2022-09-02T13:16:41.997Z,28.07
2022-09-02T13:19:36.765Z,27.16
2022-09-02T13:22:15.541Z,28.34
2022-09-02T13:24:59.582Z,26.87
2022-09-02T13:28:04.660Z,27.40
2022-09-02T13:30:38.194Z,27.81
2022-09-02T13:33:15.433Z,27.60
2022-09-02T13:35:43.139Z,27.71
2022-09-02T13:38:12.947Z,27.92
2022-09-02T13:40:41.326Z,28.37
2022-09-02T13:43:14.208Z,28.51
2022-09-02T13:45:41.720Z,28.59
2022-09-02T13:48:17.944Z,28.40
2022-09-02T13:50:50.905Z,28.69
2022-09-02T13:53:54.085Z,28.79
2022-09-02T13:56:15.567Z,29.28
2022-09-02T13:58:53.898Z,29.11
2022-09-02T14:01:27.714Z,28.86
2022-09-02T14:03:57.907Z,28.36
2022-09-02T14:06:29.898Z,28.24
2022-09-02T14:09:03.089Z,29.12
2022-09-02T14:11:41.948Z,29.17
2022-09-02T14:14:14.079Z,28.66
2022-09-02T14:16:40.910Z,28.89
2022-09-02T14:19:16.947Z,27.07
2022-09-02T14:21:59.250Z,27.64
2022-09-02T14:24:37.287Z,26.79
2022-09-02T14:27:04.428Z,27.56
2022-09-02T14:29:32.290Z,27.59
2022-09-02T14:32:15.741Z,27.85
2022-09-02T14:34:47.647Z,27.94
2022-09-02T14:37:28.876Z,28.25
2022-09-02T14:40:11.715Z,28.28
2022-09-02T14:42:56.543Z,28.08
2022-09-02T14:45:33.049Z,28.13
2022-09-02T14:48:11.209Z,27.73
2022-09-02T14:50:39.799Z,27.68
2022-09-02T14:53:09.335Z,27.43
2022-09-02T14:55:47.045Z,27.55
2022-09-02T14:58:15.365Z,27.30
2022-09-02T15:00:46.188Z,27.81
2022-09-02T15:03:16.690Z,26.08
2022-09-02T15:05:44.006Z,26.86
2022-09-02T15:08:11.590Z,26.73
2022-09-02T15:10:43.734Z,26.33
2022-09-02T15:13:22.931Z,25.95
2022-09-02T15:15:52.083Z,25.93
2022-09-02T15:18:19.137Z,26.77
2022-09-02T15:20:45.989Z,26.68
2022-09-02T15:23:12.916Z,26.29
2022-09-02T15:25:40.223Z,26.61
2022-09-02T15:28:07.128Z,26.47
2022-09-02T15:30:37.406Z,26.56
2022-09-02T15:33:08.133Z,26.62
2022-09-02T15:35:43.384Z,26.42
2022-09-02T15:38:10.183Z,26.36
2022-09-02T15:40:36.972Z,26.14
2022-09-02T15:43:03.742Z,26.77
2022-09-02T15:45:31.367Z,26.64
2022-09-02T15:47:59.242Z,25.86
2022-09-02T15:50:27.501Z,26.25
2022-09-02T15:52:56.126Z,26.25
2022-09-02T15:55:28.998Z,26.42
2022-09-02T15:57:56.335Z,26.21
2022-09-02T16:00:23.325Z,25.22
2022-09-02T16:02:54.837Z,25.86
2022-09-02T16:05:21.582Z,25.35
2022-09-02T16:07:48.717Z,26.03
2022-09-02T16:10:15.794Z,26.25
2022-09-02T16:12:42.982Z,25.74
2022-09-02T16:15:09.920Z,26.22
2022-09-02T16:17:36.875Z,26.27
2022-09-02T16:20:05.206Z,26.20
2022-09-02T16:22:31.958Z,26.32
2022-09-02T16:24:58.751Z,26.38
2022-09-02T16:27:44.093Z,26.23
2022-09-02T16:30:11.402Z,26.35
2022-09-02T16:32:38.123Z,26.31
2022-09-02T16:35:05.341Z,26.22
2022-09-02T16:37:32.231Z,26.32
2022-09-02T16:39:59.054Z,26.15
2022-09-02T16:42:26.211Z,25.97
2022-09-02T16:44:53.015Z,25.96
2022-09-02T16:47:19.946Z,26.11
2022-09-02T16:49:46.786Z,26.15
2022-09-02T16:52:14.022Z,26.35
2022-09-02T16:54:41.361Z,26.13
2022-09-02T16:57:09.133Z,25.96
2022-09-02T16:59:36.161Z,25.96
2022-09-02T17:02:03.067Z,26.11
2022-09-02T17:04:29.925Z,26.21
2022-09-02T17:06:57.132Z,26.04
2022-09-02T17:09:23.948Z,26.11
2022-09-02T17:11:53.841Z,26.11
2022-09-02T17:14:21.792Z,25.90
2022-09-02T17:16:50.955Z,25.77
2022-09-02T17:19:22.986Z,25.93
2022-09-02T17:21:51.013Z,25.97
2022-09-02T17:24:19.917Z,25.97
2022-09-02T17:26:50.819Z,25.85
2022-09-02T17:32:09.701Z,25.94
2022-09-02T17:34:37.237Z,25.91
2022-09-02T17:37:05.452Z,25.37
2022-09-02T17:39:34.515Z,25.47
2022-09-02T17:42:03.109Z,25.24
2022-09-02T17:44:33.659Z,25.33
2022-09-02T17:47:01.323Z,24.91
2022-09-02T17:49:29.396Z,24.93
2022-09-02T17:51:57.789Z,24.95
2022-09-02T17:54:26.069Z,24.99
2022-09-02T17:57:08.807Z,24.88
2022-09-02T18:00:03.989Z,24.75
2022-09-02T18:02:37.639Z,24.83
2022-09-02T18:05:29.401Z,24.68
2022-09-02T18:08:02.969Z,24.69
2022-09-02T18:10:39.126Z,24.53
2022-09-02T18:13:13.823Z,24.69
2022-09-02T18:15:54.629Z,24.47
2022-09-02T18:18:21.729Z,24.53
2022-09-02T18:20:57.478Z,24.59
2022-09-02T18:23:41.823Z,24.54
2022-09-02T18:26:36.393Z,24.60
2022-09-02T18:29:15.373Z,24.51
2022-09-02T18:32:03.208Z,24.35
2022-09-02T18:34:38.770Z,24.21
2022-09-02T18:37:16.652Z,24.14
2022-09-02T18:39:52.507Z,24.03
2022-09-02T18:42:51.234Z,23.91
2022-09-02T18:45:43.286Z,23.98
2022-09-02T18:48:16.911Z,23.84
2022-09-02T18:50:58.961Z,23.66
2022-09-02T18:53:32.553Z,23.63
2022-09-02T18:56:06.074Z,23.33
2022-09-02T18:58:48.312Z,23.34
2022-09-02T19:01:23.875Z,23.21
2022-09-02T19:03:51.350Z,23.33
2022-09-02T19:06:36.144Z,23.17
2022-09-02T19:09:13.394Z,23.14
2022-09-02T19:11:40.869Z,23.09
2022-09-02T19:14:30.109Z,23.09
2022-09-02T19:16:58.509Z,23.18
2022-09-02T19:19:27.738Z,22.82
2022-09-02T19:21:58.115Z,22.37
2022-09-02T19:24:34.061Z,22.44
2022-09-02T19:27:15.428Z,22.16
2022-09-02T19:29:48.129Z,22.10
2022-09-02T19:32:15.470Z,22.06
2022-09-02T19:34:45.303Z,20.90
2022-09-02T19:37:14.489Z,21.37
2022-09-02T19:39:41.530Z,21.52
2022-09-02T19:42:09.464Z,21.62
2022-09-02T19:44:36.377Z,21.57
2022-09-02T19:49:50.063Z,21.58
2022-09-02T19:52:16.965Z,21.68
2022-09-02T19:54:44.140Z,21.67
2022-09-02T19:57:11.098Z,21.78
2022-09-02T19:59:37.945Z,21.76
2022-09-02T20:02:06.541Z,21.67
2022-09-02T20:04:33.505Z,21.67
2022-09-02T20:07:01.143Z,21.73
2022-09-02T20:09:29.298Z,21.52
2022-09-02T20:11:56.696Z,21.27
2022-09-02T20:14:24.316Z,21.44
2022-09-02T20:16:58.263Z,21.29
2022-09-02T20:19:26.460Z,21.11
2022-09-02T20:21:53.847Z,20.67
2022-09-02T20:24:32.547Z,20.85
2022-09-02T20:27:21.813Z,20.72
2022-09-02T20:30:09.566Z,20.28
2022-09-02T20:32:52.094Z,19.67
2022-09-02T20:35:37.720Z,19.20
2022-09-02T20:38:23.434Z,19.34
2022-09-02T20:41:02.564Z,19.29
2022-09-02T20:43:45.474Z,19.49
2022-09-02T20:46:40.539Z,19.32
2022-09-02T20:49:26.842Z,19.40
2022-09-02T20:52:02.560Z,19.23
2022-09-02T20:54:51.466Z,19.40
2022-09-02T20:57:20.795Z,19.50
2022-09-02T20:59:47.877Z,19.22
2022-09-02T21:02:18.749Z,19.36
2022-09-02T21:04:53.012Z,19.43
2022-09-02T21:07:38.599Z,19.63
2022-09-02T21:10:25.478Z,19.69
2022-09-02T21:13:07.701Z,19.53
2022-09-02T21:15:49.015Z,19.66
2022-09-02T21:18:40.614Z,19.79
2022-09-02T21:21:30.097Z,19.83
2022-09-02T21:24:29.338Z,19.41
2022-09-02T21:27:12.596Z,19.46
2022-09-02T21:29:51.316Z,19.59
2022-09-02T21:32:26.157Z,19.61
2022-09-02T21:34:58.681Z,19.45
2022-09-02T21:37:27.722Z,19.45
2022-09-02T21:39:58.558Z,19.52
2022-09-02T21:42:35.971Z,19.44
2022-09-02T21:45:34.243Z,19.29
2022-09-02T21:48:31.097Z,19.32
2022-09-02T21:51:05.208Z,19.29
2022-09-02T21:53:56.230Z,19.19
2022-09-02T21:56:54.519Z,18.93
2022-09-02T21:59:37.901Z,19.04
2022-09-02T22:02:16.774Z,18.71
2022-09-02T22:04:52.829Z,18.71
2022-09-02T22:07:44.932Z,18.26
2022-09-02T22:10:26.781Z,18.60
2022-09-02T22:12:55.764Z,18.58
2022-09-02T22:15:33.611Z,18.68
2022-09-02T22:18:39.619Z,18.70
2022-09-02T22:21:31.458Z,18.89
2022-09-02T22:24:01.131Z,18.75
2022-09-02T22:26:52.255Z,18.76
2022-09-02T22:29:41.132Z,18.45
2022-09-02T22:32:12.282Z,18.54
2022-09-02T22:34:49.827Z,18.48
2022-09-02T22:37:24.408Z,18.58
2022-09-02T22:39:54.232Z,18.04
2022-09-02T22:42:33.534Z,18.41
2022-09-02T22:45:24.813Z,18.18
2022-09-02T22:48:17.313Z,18.12
2022-09-02T22:51:08.419Z,17.41
2022-09-02T22:53:35.220Z,17.76
2022-09-02T22:56:05.066Z,17.71
2022-09-02T22:59:03.894Z,17.64
2022-09-02T23:01:51.700Z,17.78
2022-09-02T23:04:25.174Z,17.69
2022-09-02T23:07:01.981Z,17.58
2022-09-02T23:09:28.744Z,17.55
2022-09-02T23:12:12.753Z,17.64
2022-09-02T23:14:51.564Z,17.38
2022-09-02T23:17:38.922Z,17.41
2022-09-02T23:20:28.372Z,17.69
2022-09-02T23:23:18.043Z,17.75
2022-09-02T23:26:09.951Z,17.72
2022-09-02T23:28:45.781Z,17.57
2022-09-02T23:31:43.757Z,17.41
2022-09-02T23:34:28.239Z,17.36
2022-09-02T23:37:36.697Z,17.37
2022-09-02T23:40:12.828Z,17.22
2022-09-02T23:42:39.733Z,17.51
2022-09-02T23:45:27.173Z,17.52
2022-09-02T23:48:17.363Z,17.72
2022-09-02T23:50:45.949Z,17.63
2022-09-02T23:53:30.247Z,17.60
2022-09-02T23:56:24.405Z,17.27
2022-09-02T23:59:03.154Z,17.22
